sensor_id;sensor_type;location;lat;lon;timestamp;temperature;humidity
60717;DHT22;46566;52.700;6.192;2023-07-22T00:01:25;14.90;99.90
60717;DHT22;46566;52.700;6.192;2023-07-22T00:03:50;14.80;99.90
60717;DHT22;46566;52.700;6.192;2023-07-22T00:06:16;14.80;99.90
60717;DHT22;46566;52.700;6.192;2023-07-22T00:08:42;14.80;99.90
60717;DHT22;46566;52.700;6.192;2023-07-22T00:11:08;14.80;99.90
60717;DHT22;46566;52.700;6.192;2023-07-22T00:13:34;14.80;99.90
60717;DHT22;46566;52.700;6.192;2023-07-22T00:16:00;14.80;99.90
60717;DHT22;46566;52.700;6.192;2023-07-22T00:18:27;14.70;99.90
60717;DHT22;46566;52.700;6.192;2023-07-22T00:20:53;14.70;99.90
60717;DHT22;46566;52.700;6.192;2023-07-22T00:23:19;14.70;99.90
60717;DHT22;46566;52.700;6.192;2023-07-22T00:25:46;14.70;99.90
60717;DHT22;46566;52.700;6.192;2023-07-22T00:28:12;14.70;99.90
60717;DHT22;46566;52.700;6.192;2023-07-22T00:30:38;14.70;99.90
60717;DHT22;46566;52.700;6.192;2023-07-22T00:33:04;14.70;99.90
60717;DHT22;46566;52.700;6.192;2023-07-22T00:35:29;14.70;99.90
60717;DHT22;46566;52.700;6.192;2023-07-22T00:37:56;14.70;99.90
60717;DHT22;46566;52.700;6.192;2023-07-22T00:40:22;14.60;99.90
60717;DHT22;46566;52.700;6.192;2023-07-22T00:42:48;14.70;99.90
60717;DHT22;46566;52.700;6.192;2023-07-22T00:45:14;14.60;99.90
60717;DHT22;46566;52.700;6.192;2023-07-22T00:47:39;14.70;99.90
60717;DHT22;46566;52.700;6.192;2023-07-22T00:50:07;14.60;99.90
60717;DHT22;46566;52.700;6.192;2023-07-22T00:52:33;14.50;99.90
60717;DHT22;46566;52.700;6.192;2023-07-22T00:54:59;14.50;99.90
60717;DHT22;46566;52.700;6.192;2023-07-22T00:57:27;14.50;99.90
60717;DHT22;46566;52.700;6.192;2023-07-22T00:59:54;14.50;99.90
60717;DHT22;46566;52.700;6.192;2023-07-22T01:02:20;14.50;99.90
60717;DHT22;46566;52.700;6.192;2023-07-22T01:04:46;14.40;99.90
60717;DHT22;46566;52.700;6.192;2023-07-22T01:07:13;14.50;99.90
60717;DHT22;46566;52.700;6.192;2023-07-22T01:09:40;14.50;99.90
60717;DHT22;46566;52.700;6.192;2023-07-22T01:12:06;14.50;99.90
60717;DHT22;46566;52.700;6.192;2023-07-22T01:14:37;14.50;99.90
60717;DHT22;46566;52.700;6.192;2023-07-22T01:17:04;14.50;99.90
60717;DHT22;46566;52.700;6.192;2023-07-22T01:19:33;14.50;99.90
60717;DHT22;46566;52.700;6.192;2023-07-22T01:22:00;14.40;99.90
60717;DHT22;46566;52.700;6.192;2023-07-22T01:24:30;14.40;99.90
60717;DHT22;46566;52.700;6.192;2023-07-22T01:26:56;14.40;99.90
60717;DHT22;46566;52.700;6.192;2023-07-22T01:29:22;14.40;99.90
60717;DHT22;46566;52.700;6.192;2023-07-22T01:31:51;14.40;99.90
60717;DHT22;46566;52.700;6.192;2023-07-22T01:34:17;14.40;99.90
60717;DHT22;46566;52.700;6.192;2023-07-22T01:36:44;14.40;99.90
60717;DHT22;46566;52.700;6.192;2023-07-22T01:39:10;14.40;99.90
60717;DHT22;46566;52.700;6.192;2023-07-22T01:41:39;14.40;99.90
60717;DHT22;46566;52.700;6.192;2023-07-22T01:44:04;14.40;99.90
60717;DHT22;46566;52.700;6.192;2023-07-22T01:46:30;14.40;99.90
60717;DHT22;46566;52.700;6.192;2023-07-22T01:48:56;14.50;99.90
60717;DHT22;46566;52.700;6.192;2023-07-22T01:51:22;14.50;99.90
60717;DHT22;46566;52.700;6.192;2023-07-22T01:53:48;14.50;99.90
60717;DHT22;46566;52.700;6.192;2023-07-22T01:56:15;14.40;99.90
60717;DHT22;46566;52.700;6.192;2023-07-22T01:58:42;14.40;99.90
60717;DHT22;46566;52.700;6.192;2023-07-22T02:01:08;14.40;99.90
60717;DHT22;46566;52.700;6.192;2023-07-22T02:03:33;14.40;99.90
60717;DHT22;46566;52.700;6.192;2023-07-22T02:06:05;14.40;99.90
60717;DHT22;46566;52.700;6.192;2023-07-22T02:08:31;14.40;99.90
60717;DHT22;46566;52.700;6.192;2023-07-22T02:11:05;14.40;99.90
60717;DHT22;46566;52.700;6.192;2023-07-22T02:13:32;14.40;99.90
60717;DHT22;46566;52.700;6.192;2023-07-22T02:15:58;14.40;99.90
60717;DHT22;46566;52.700;6.192;2023-07-22T02:18:24;14.40;99.90
60717;DHT22;46566;52.700;6.192;2023-07-22T02:20:50;14.30;99.90
60717;DHT22;46566;52.700;6.192;2023-07-22T02:23:16;14.30;99.90
60717;DHT22;46566;52.700;6.192;2023-07-22T02:25:41;14.20;99.90
60717;DHT22;46566;52.700;6.192;2023-07-22T02:28:07;14.30;99.90
60717;DHT22;46566;52.700;6.192;2023-07-22T02:30:37;14.20;99.90
60717;DHT22;46566;52.700;6.192;2023-07-22T02:33:05;14.10;99.90
60717;DHT22;46566;52.700;6.192;2023-07-22T02:35:31;14.10;99.90
60717;DHT22;46566;52.700;6.192;2023-07-22T02:37:57;14.10;99.90
60717;DHT22;46566;52.700;6.192;2023-07-22T02:40:23;14.10;99.90
60717;DHT22;46566;52.700;6.192;2023-07-22T02:42:48;14.10;99.90
60717;DHT22;46566;52.700;6.192;2023-07-22T02:45:14;14.20;99.90
60717;DHT22;46566;52.700;6.192;2023-07-22T02:47:40;14.10;99.90
60717;DHT22;46566;52.700;6.192;2023-07-22T02:50:06;14.10;99.90
60717;DHT22;46566;52.700;6.192;2023-07-22T02:52:33;14.00;99.90
60717;DHT22;46566;52.700;6.192;2023-07-22T02:55:09;14.00;99.90
60717;DHT22;46566;52.700;6.192;2023-07-22T02:57:39;14.00;99.90
60717;DHT22;46566;52.700;6.192;2023-07-22T03:00:06;14.00;99.90
60717;DHT22;46566;52.700;6.192;2023-07-22T03:02:55;14.00;99.90
60717;DHT22;46566;52.700;6.192;2023-07-22T03:05:27;14.00;99.90
60717;DHT22;46566;52.700;6.192;2023-07-22T03:07:56;14.00;99.90
60717;DHT22;46566;52.700;6.192;2023-07-22T03:10:23;14.00;99.90
60717;DHT22;46566;52.700;6.192;2023-07-22T03:12:51;14.00;99.90
60717;DHT22;46566;52.700;6.192;2023-07-22T03:15:24;14.00;99.90
60717;DHT22;46566;52.700;6.192;2023-07-22T03:17:51;14.10;99.90
60717;DHT22;46566;52.700;6.192;2023-07-22T03:20:17;14.00;99.90
60717;DHT22;46566;52.700;6.192;2023-07-22T03:22:45;14.10;99.90
60717;DHT22;46566;52.700;6.192;2023-07-22T03:25:11;14.00;99.90
60717;DHT22;46566;52.700;6.192;2023-07-22T03:27:38;14.00;99.90
60717;DHT22;46566;52.700;6.192;2023-07-22T03:30:05;14.00;99.90
60717;DHT22;46566;52.700;6.192;2023-07-22T03:32:33;14.10;99.90
60717;DHT22;46566;52.700;6.192;2023-07-22T03:35:00;14.10;99.90
60717;DHT22;46566;52.700;6.192;2023-07-22T03:37:27;14.10;99.90
60717;DHT22;46566;52.700;6.192;2023-07-22T03:39:53;14.10;99.90
60717;DHT22;46566;52.700;6.192;2023-07-22T03:42:19;14.00;99.90
60717;DHT22;46566;52.700;6.192;2023-07-22T03:44:45;14.00;99.90
60717;DHT22;46566;52.700;6.192;2023-07-22T03:47:10;14.00;99.90
60717;DHT22;46566;52.700;6.192;2023-07-22T03:49:36;14.00;99.90
60717;DHT22;46566;52.700;6.192;2023-07-22T03:52:02;13.90;99.90
60717;DHT22;46566;52.700;6.192;2023-07-22T03:54:27;13.90;99.90
60717;DHT22;46566;52.700;6.192;2023-07-22T03:56:53;13.90;99.90
60717;DHT22;46566;52.700;6.192;2023-07-22T03:59:19;13.90;99.90
60717;DHT22;46566;52.700;6.192;2023-07-22T04:01:44;13.90;99.90
60717;DHT22;46566;52.700;6.192;2023-07-22T04:04:12;13.90;99.90
60717;DHT22;46566;52.700;6.192;2023-07-22T04:06:38;13.90;99.90
60717;DHT22;46566;52.700;6.192;2023-07-22T04:09:03;13.90;99.90
60717;DHT22;46566;52.700;6.192;2023-07-22T04:11:29;13.80;99.90
60717;DHT22;46566;52.700;6.192;2023-07-22T04:13:55;13.80;99.90
60717;DHT22;46566;52.700;6.192;2023-07-22T04:16:20;13.80;99.90
60717;DHT22;46566;52.700;6.192;2023-07-22T04:18:46;13.80;99.90
60717;DHT22;46566;52.700;6.192;2023-07-22T04:21:12;13.80;99.90
60717;DHT22;46566;52.700;6.192;2023-07-22T04:23:37;13.80;99.90
60717;DHT22;46566;52.700;6.192;2023-07-22T04:26:04;13.80;99.90
60717;DHT22;46566;52.700;6.192;2023-07-22T04:28:36;13.80;99.90
60717;DHT22;46566;52.700;6.192;2023-07-22T04:31:02;13.80;99.90
60717;DHT22;46566;52.700;6.192;2023-07-22T04:33:28;13.90;99.90
60717;DHT22;46566;52.700;6.192;2023-07-22T04:35:57;13.90;99.90
60717;DHT22;46566;52.700;6.192;2023-07-22T04:38:23;13.90;99.90
60717;DHT22;46566;52.700;6.192;2023-07-22T04:40:49;13.80;99.90
60717;DHT22;46566;52.700;6.192;2023-07-22T04:43:15;13.80;99.90
60717;DHT22;46566;52.700;6.192;2023-07-22T04:45:40;13.80;99.90
60717;DHT22;46566;52.700;6.192;2023-07-22T04:48:06;13.90;99.90
60717;DHT22;46566;52.700;6.192;2023-07-22T04:50:33;13.80;99.90
60717;DHT22;46566;52.700;6.192;2023-07-22T04:52:59;13.90;99.90
60717;DHT22;46566;52.700;6.192;2023-07-22T04:55:25;13.90;99.90
60717;DHT22;46566;52.700;6.192;2023-07-22T04:57:51;13.90;99.90
60717;DHT22;46566;52.700;6.192;2023-07-22T05:00:17;13.90;99.90
60717;DHT22;46566;52.700;6.192;2023-07-22T05:02:45;13.90;99.90
60717;DHT22;46566;52.700;6.192;2023-07-22T05:05:14;13.80;99.90
60717;DHT22;46566;52.700;6.192;2023-07-22T05:07:40;13.80;99.90
60717;DHT22;46566;52.700;6.192;2023-07-22T05:10:07;13.80;99.90
60717;DHT22;46566;52.700;6.192;2023-07-22T05:12:38;13.80;99.90
60717;DHT22;46566;52.700;6.192;2023-07-22T05:15:05;13.80;99.90
60717;DHT22;46566;52.700;6.192;2023-07-22T05:17:31;13.80;99.90
60717;DHT22;46566;52.700;6.192;2023-07-22T05:19:57;13.80;99.90
60717;DHT22;46566;52.700;6.192;2023-07-22T05:22:23;13.80;99.90
60717;DHT22;46566;52.700;6.192;2023-07-22T05:24:49;13.80;99.90
60717;DHT22;46566;52.700;6.192;2023-07-22T05:27:14;13.80;99.90
60717;DHT22;46566;52.700;6.192;2023-07-22T05:29:40;13.80;99.90
60717;DHT22;46566;52.700;6.192;2023-07-22T05:32:06;13.80;99.90
60717;DHT22;46566;52.700;6.192;2023-07-22T05:34:32;13.80;99.90
60717;DHT22;46566;52.700;6.192;2023-07-22T05:36:58;13.80;99.90
60717;DHT22;46566;52.700;6.192;2023-07-22T05:39:24;13.80;99.90
60717;DHT22;46566;52.700;6.192;2023-07-22T05:41:50;13.80;99.90
60717;DHT22;46566;52.700;6.192;2023-07-22T05:44:16;13.70;99.90
60717;DHT22;46566;52.700;6.192;2023-07-22T05:46:42;13.70;99.90
60717;DHT22;46566;52.700;6.192;2023-07-22T05:49:09;13.70;99.90
60717;DHT22;46566;52.700;6.192;2023-07-22T05:51:34;13.70;99.90
60717;DHT22;46566;52.700;6.192;2023-07-22T05:54:00;13.70;99.90
60717;DHT22;46566;52.700;6.192;2023-07-22T05:56:26;13.70;99.90
60717;DHT22;46566;52.700;6.192;2023-07-22T05:58:51;13.70;99.90
60717;DHT22;46566;52.700;6.192;2023-07-22T06:01:17;13.70;99.90
60717;DHT22;46566;52.700;6.192;2023-07-22T06:03:43;13.70;99.90
60717;DHT22;46566;52.700;6.192;2023-07-22T06:06:10;13.70;99.90
60717;DHT22;46566;52.700;6.192;2023-07-22T06:08:35;13.80;99.90
60717;DHT22;46566;52.700;6.192;2023-07-22T06:11:01;13.70;99.90
60717;DHT22;46566;52.700;6.192;2023-07-22T06:13:27;13.70;99.90
60717;DHT22;46566;52.700;6.192;2023-07-22T06:15:53;13.70;99.90
60717;DHT22;46566;52.700;6.192;2023-07-22T06:18:19;13.80;99.90
60717;DHT22;46566;52.700;6.192;2023-07-22T06:20:45;13.80;99.90
60717;DHT22;46566;52.700;6.192;2023-07-22T06:23:11;13.80;99.90
60717;DHT22;46566;52.700;6.192;2023-07-22T06:25:36;13.90;99.90
60717;DHT22;46566;52.700;6.192;2023-07-22T06:30:59;13.90;99.90
60717;DHT22;46566;52.700;6.192;2023-07-22T06:33:29;14.00;99.90
60717;DHT22;46566;52.700;6.192;2023-07-22T06:38:45;14.10;99.90
60717;DHT22;46566;52.700;6.192;2023-07-22T06:41:10;14.20;99.90
60717;DHT22;46566;52.700;6.192;2023-07-22T06:43:36;14.20;99.90
60717;DHT22;46566;52.700;6.192;2023-07-22T06:49:00;14.40;99.90
60717;DHT22;46566;52.700;6.192;2023-07-22T06:51:25;14.40;99.90
60717;DHT22;46566;52.700;6.192;2023-07-22T06:56:48;14.50;99.90
60717;DHT22;46566;52.700;6.192;2023-07-22T06:59:14;14.50;99.90
60717;DHT22;46566;52.700;6.192;2023-07-22T07:01:40;14.60;99.90
60717;DHT22;46566;52.700;6.192;2023-07-22T07:04:24;14.60;99.90
60717;DHT22;46566;52.700;6.192;2023-07-22T07:06:50;14.60;99.90
60717;DHT22;46566;52.700;6.192;2023-07-22T07:09:16;14.60;99.90
60717;DHT22;46566;52.700;6.192;2023-07-22T07:11:42;14.60;99.90
60717;DHT22;46566;52.700;6.192;2023-07-22T07:14:33;14.70;99.90
60717;DHT22;46566;52.700;6.192;2023-07-22T07:17:00;14.70;99.90
60717;DHT22;46566;52.700;6.192;2023-07-22T07:19:29;14.70;99.90
60717;DHT22;46566;52.700;6.192;2023-07-22T07:21:54;14.80;99.90
60717;DHT22;46566;52.700;6.192;2023-07-22T07:24:46;14.80;99.90
60717;DHT22;46566;52.700;6.192;2023-07-22T07:27:11;14.90;99.90
60717;DHT22;46566;52.700;6.192;2023-07-22T07:29:37;15.00;99.90
60717;DHT22;46566;52.700;6.192;2023-07-22T07:32:03;15.00;99.90
60717;DHT22;46566;52.700;6.192;2023-07-22T07:34:55;15.10;99.90
60717;DHT22;46566;52.700;6.192;2023-07-22T07:37:22;15.10;99.90
60717;DHT22;46566;52.700;6.192;2023-07-22T07:39:48;15.20;99.90
60717;DHT22;46566;52.700;6.192;2023-07-22T07:42:40;15.20;99.90
60717;DHT22;46566;52.700;6.192;2023-07-22T07:45:06;15.20;99.90
60717;DHT22;46566;52.700;6.192;2023-07-22T07:47:32;15.20;99.90
60717;DHT22;46566;52.700;6.192;2023-07-22T07:49:58;15.30;99.90
60717;DHT22;46566;52.700;6.192;2023-07-22T07:55:20;15.40;99.90
60717;DHT22;46566;52.700;6.192;2023-07-22T07:57:46;15.50;99.90
60717;DHT22;46566;52.700;6.192;2023-07-22T08:00:12;15.50;99.90
60717;DHT22;46566;52.700;6.192;2023-07-22T08:05:17;15.50;99.90
60717;DHT22;46566;52.700;6.192;2023-07-22T08:07:43;15.60;99.90
60717;DHT22;46566;52.700;6.192;2023-07-22T08:10:09;15.60;99.90
60717;DHT22;46566;52.700;6.192;2023-07-22T08:12:35;15.60;99.90
60717;DHT22;46566;52.700;6.192;2023-07-22T08:17:50;15.60;99.90
60717;DHT22;46566;52.700;6.192;2023-07-22T08:20:16;15.60;99.90
60717;DHT22;46566;52.700;6.192;2023-07-22T08:22:42;15.60;99.90
60717;DHT22;46566;52.700;6.192;2023-07-22T08:27:50;15.50;99.90
60717;DHT22;46566;52.700;6.192;2023-07-22T08:30:16;15.50;99.90
60717;DHT22;46566;52.700;6.192;2023-07-22T08:32:41;15.50;99.90
60717;DHT22;46566;52.700;6.192;2023-07-22T08:35:07;15.50;99.90
60717;DHT22;46566;52.700;6.192;2023-07-22T08:37:59;15.50;99.90
60717;DHT22;46566;52.700;6.192;2023-07-22T08:40:24;15.50;99.90
60717;DHT22;46566;52.700;6.192;2023-07-22T08:42:50;15.60;99.90
60717;DHT22;46566;52.700;6.192;2023-07-22T08:45:17;15.70;99.90
60717;DHT22;46566;52.700;6.192;2023-07-22T08:47:53;15.90;99.90
60717;DHT22;46566;52.700;6.192;2023-07-22T08:50:20;16.00;99.90
60717;DHT22;46566;52.700;6.192;2023-07-22T08:52:47;16.00;99.90
60717;DHT22;46566;52.700;6.192;2023-07-22T08:55:14;16.10;99.90
60717;DHT22;46566;52.700;6.192;2023-07-22T08:57:41;16.10;99.90
60717;DHT22;46566;52.700;6.192;2023-07-22T09:00:27;16.20;99.90
60717;DHT22;46566;52.700;6.192;2023-07-22T09:02:53;16.30;99.90
60717;DHT22;46566;52.700;6.192;2023-07-22T09:05:19;16.40;99.90
60717;DHT22;46566;52.700;6.192;2023-07-22T09:07:47;16.60;99.90
60717;DHT22;46566;52.700;6.192;2023-07-22T09:13:14;16.80;99.90
60717;DHT22;46566;52.700;6.192;2023-07-22T09:15:40;16.90;99.90
60717;DHT22;46566;52.700;6.192;2023-07-22T09:21:05;17.10;99.90
60717;DHT22;46566;52.700;6.192;2023-07-22T09:23:57;17.10;99.90
60717;DHT22;46566;52.700;6.192;2023-07-22T09:26:22;17.20;99.90
60717;DHT22;46566;52.700;6.192;2023-07-22T09:28:56;17.20;99.90
60717;DHT22;46566;52.700;6.192;2023-07-22T09:31:24;17.20;99.90
60717;DHT22;46566;52.700;6.192;2023-07-22T09:34:15;17.20;99.90
60717;DHT22;46566;52.700;6.192;2023-07-22T09:36:51;17.20;99.90
60717;DHT22;46566;52.700;6.192;2023-07-22T09:39:17;17.20;99.90
60717;DHT22;46566;52.700;6.192;2023-07-22T09:42:09;17.10;99.90
60717;DHT22;46566;52.700;6.192;2023-07-22T09:44:35;17.10;99.90
60717;DHT22;46566;52.700;6.192;2023-07-22T09:47:06;17.10;99.90
60717;DHT22;46566;52.700;6.192;2023-07-22T09:49:59;17.10;99.90
60717;DHT22;46566;52.700;6.192;2023-07-22T09:52:25;17.20;99.90
60717;DHT22;46566;52.700;6.192;2023-07-22T09:54:51;17.20;99.90
60717;DHT22;46566;52.700;6.192;2023-07-22T09:57:17;17.30;99.90
60717;DHT22;46566;52.700;6.192;2023-07-22T10:00:09;17.30;99.90
60717;DHT22;46566;52.700;6.192;2023-07-22T10:02:38;17.40;99.90
60717;DHT22;46566;52.700;6.192;2023-07-22T10:05:06;17.50;99.90
60717;DHT22;46566;52.700;6.192;2023-07-22T10:07:54;17.50;99.90
60717;DHT22;46566;52.700;6.192;2023-07-22T10:10:24;17.60;99.90
60717;DHT22;46566;52.700;6.192;2023-07-22T10:12:51;17.60;99.90
60717;DHT22;46566;52.700;6.192;2023-07-22T10:15:16;17.70;99.90
60717;DHT22;46566;52.700;6.192;2023-07-22T10:18:10;17.70;99.90
60717;DHT22;46566;52.700;6.192;2023-07-22T10:20:37;17.70;99.90
60717;DHT22;46566;52.700;6.192;2023-07-22T10:23:04;17.70;99.90
60717;DHT22;46566;52.700;6.192;2023-07-22T10:25:33;17.80;99.90
60717;DHT22;46566;52.700;6.192;2023-07-22T10:28:25;17.70;99.90
60717;DHT22;46566;52.700;6.192;2023-07-22T10:30:54;17.70;99.90
60717;DHT22;46566;52.700;6.192;2023-07-22T10:33:20;17.70;99.90
60717;DHT22;46566;52.700;6.192;2023-07-22T10:38:57;17.50;99.90
60717;DHT22;46566;52.700;6.192;2023-07-22T10:41:48;17.40;99.90
60717;DHT22;46566;52.700;6.192;2023-07-22T10:44:14;17.10;99.90
60717;DHT22;46566;52.700;6.192;2023-07-22T10:46:40;16.80;99.90
60717;DHT22;46566;52.700;6.192;2023-07-22T10:49:13;16.60;99.90
60717;DHT22;46566;52.700;6.192;2023-07-22T10:52:13;16.40;99.90
60717;DHT22;46566;52.700;6.192;2023-07-22T10:54:42;16.30;99.90
60717;DHT22;46566;52.700;6.192;2023-07-22T11:00:18;16.00;99.90
60717;DHT22;46566;52.700;6.192;2023-07-22T11:03:12;15.80;99.90
60717;DHT22;46566;52.700;6.192;2023-07-22T11:05:53;15.90;99.90
60717;DHT22;46566;52.700;6.192;2023-07-22T11:08:43;15.90;99.90
60717;DHT22;46566;52.700;6.192;2023-07-22T11:11:09;16.00;99.90
60717;DHT22;46566;52.700;6.192;2023-07-22T11:13:40;16.10;99.90
60717;DHT22;46566;52.700;6.192;2023-07-22T11:16:11;16.10;99.90
60717;DHT22;46566;52.700;6.192;2023-07-22T11:18:48;16.20;99.90
60717;DHT22;46566;52.700;6.192;2023-07-22T11:21:14;16.20;99.90
60717;DHT22;46566;52.700;6.192;2023-07-22T11:23:40;16.20;99.90
60717;DHT22;46566;52.700;6.192;2023-07-22T11:26:06;16.30;99.90
60717;DHT22;46566;52.700;6.192;2023-07-22T11:28:31;16.30;99.90
60717;DHT22;46566;52.700;6.192;2023-07-22T11:34:02;16.30;99.90
60717;DHT22;46566;52.700;6.192;2023-07-22T11:36:27;16.30;99.90
60717;DHT22;46566;52.700;6.192;2023-07-22T11:39:19;16.40;99.90
60717;DHT22;46566;52.700;6.192;2023-07-22T11:41:46;16.40;99.90
60717;DHT22;46566;52.700;6.192;2023-07-22T11:44:26;16.40;99.90
60717;DHT22;46566;52.700;6.192;2023-07-22T11:47:11;16.50;99.90
60717;DHT22;46566;52.700;6.192;2023-07-22T11:49:39;16.40;99.90
60717;DHT22;46566;52.700;6.192;2023-07-22T11:52:06;16.40;99.90
60717;DHT22;46566;52.700;6.192;2023-07-22T11:57:40;16.40;99.90
60717;DHT22;46566;52.700;6.192;2023-07-22T12:00:08;16.30;99.90
60717;DHT22;46566;52.700;6.192;2023-07-22T12:03:04;16.20;99.90
60717;DHT22;46566;52.700;6.192;2023-07-22T12:05:35;16.10;99.90
60717;DHT22;46566;52.700;6.192;2023-07-22T12:08:03;16.00;99.90
60717;DHT22;46566;52.700;6.192;2023-07-22T12:10:57;15.90;99.90
60717;DHT22;46566;52.700;6.192;2023-07-22T12:13:22;15.90;99.90
60717;DHT22;46566;52.700;6.192;2023-07-22T12:16:21;15.90;99.90
60717;DHT22;46566;52.700;6.192;2023-07-22T12:18:48;15.80;99.90
60717;DHT22;46566;52.700;6.192;2023-07-22T12:24:08;15.90;99.90
60717;DHT22;46566;52.700;6.192;2023-07-22T12:26:39;16.00;99.90
60717;DHT22;46566;52.700;6.192;2023-07-22T12:29:04;16.00;99.90
60717;DHT22;46566;52.700;6.192;2023-07-22T12:31:30;16.00;99.90
60717;DHT22;46566;52.700;6.192;2023-07-22T12:33:56;16.00;99.90
60717;DHT22;46566;52.700;6.192;2023-07-22T12:36:48;16.00;99.90
60717;DHT22;46566;52.700;6.192;2023-07-22T12:39:14;16.00;99.90
60717;DHT22;46566;52.700;6.192;2023-07-22T12:41:40;16.00;99.90
60717;DHT22;46566;52.700;6.192;2023-07-22T12:44:05;16.00;99.90
60717;DHT22;46566;52.700;6.192;2023-07-22T12:46:56;16.00;99.90
60717;DHT22;46566;52.700;6.192;2023-07-22T12:49:22;16.00;99.90
60717;DHT22;46566;52.700;6.192;2023-07-22T12:51:48;16.10;99.90
60717;DHT22;46566;52.700;6.192;2023-07-22T12:54:14;16.10;99.90
60717;DHT22;46566;52.700;6.192;2023-07-22T12:57:04;16.10;99.90
60717;DHT22;46566;52.700;6.192;2023-07-22T12:59:30;16.20;99.90
60717;DHT22;46566;52.700;6.192;2023-07-22T13:01:57;16.20;99.90
60717;DHT22;46566;52.700;6.192;2023-07-22T13:04:51;16.30;99.90
60717;DHT22;46566;52.700;6.192;2023-07-22T13:07:17;16.30;99.90
60717;DHT22;46566;52.700;6.192;2023-07-22T13:09:43;16.40;99.90
60717;DHT22;46566;52.700;6.192;2023-07-22T13:12:11;16.50;99.90
60717;DHT22;46566;52.700;6.192;2023-07-22T13:17:32;16.60;99.90
60717;DHT22;46566;52.700;6.192;2023-07-22T13:19:57;16.70;99.90
60717;DHT22;46566;52.700;6.192;2023-07-22T13:22:23;16.70;99.90
60717;DHT22;46566;52.700;6.192;2023-07-22T13:27:47;16.90;99.90
60717;DHT22;46566;52.700;6.192;2023-07-22T13:30:13;16.90;99.90
60717;DHT22;46566;52.700;6.192;2023-07-22T13:35:22;17.00;99.90
60717;DHT22;46566;52.700;6.192;2023-07-22T13:37:47;17.00;99.90
60717;DHT22;46566;52.700;6.192;2023-07-22T13:40:13;17.00;99.90
60717;DHT22;46566;52.700;6.192;2023-07-22T13:42:39;17.00;99.90
60717;DHT22;46566;52.700;6.192;2023-07-22T13:48:03;17.10;99.90
60717;DHT22;46566;52.700;6.192;2023-07-22T13:50:29;17.20;99.90
60717;DHT22;46566;52.700;6.192;2023-07-22T13:55:36;17.30;99.90
60717;DHT22;46566;52.700;6.192;2023-07-22T13:58:02;17.30;99.90
60717;DHT22;46566;52.700;6.192;2023-07-22T14:00:28;17.30;99.90
60717;DHT22;46566;52.700;6.192;2023-07-22T14:02:54;17.30;99.90
60717;DHT22;46566;52.700;6.192;2023-07-22T14:05:45;17.30;99.90
60717;DHT22;46566;52.700;6.192;2023-07-22T14:08:11;17.30;99.90
60717;DHT22;46566;52.700;6.192;2023-07-22T14:10:37;17.30;99.90
60717;DHT22;46566;52.700;6.192;2023-07-22T14:13:03;17.40;99.90
60717;DHT22;46566;52.700;6.192;2023-07-22T14:15:54;17.40;99.90
60717;DHT22;46566;52.700;6.192;2023-07-22T14:18:19;17.40;99.90
60717;DHT22;46566;52.700;6.192;2023-07-22T14:20:45;17.40;99.90
60717;DHT22;46566;52.700;6.192;2023-07-22T14:23:12;17.40;99.90
60717;DHT22;46566;52.700;6.192;2023-07-22T14:26:04;17.30;99.90
60717;DHT22;46566;52.700;6.192;2023-07-22T14:28:29;17.30;99.90
60717;DHT22;46566;52.700;6.192;2023-07-22T14:30:55;17.20;99.90
60717;DHT22;46566;52.700;6.192;2023-07-22T14:33:21;17.20;99.90
60717;DHT22;46566;52.700;6.192;2023-07-22T14:36:11;17.20;99.90
60717;DHT22;46566;52.700;6.192;2023-07-22T14:38:37;17.10;99.90
60717;DHT22;46566;52.700;6.192;2023-07-22T14:41:03;17.10;99.90
60717;DHT22;46566;52.700;6.192;2023-07-22T14:43:29;17.00;99.90
60717;DHT22;46566;52.700;6.192;2023-07-22T14:46:20;16.90;99.90
60717;DHT22;46566;52.700;6.192;2023-07-22T14:48:46;16.90;99.90
60717;DHT22;46566;52.700;6.192;2023-07-22T14:51:11;16.90;99.90
60717;DHT22;46566;52.700;6.192;2023-07-22T14:53:37;16.90;99.90
60717;DHT22;46566;52.700;6.192;2023-07-22T14:56:29;16.80;99.90
60717;DHT22;46566;52.700;6.192;2023-07-22T14:58:54;16.80;99.90
60717;DHT22;46566;52.700;6.192;2023-07-22T15:01:21;16.80;99.90
60717;DHT22;46566;52.700;6.192;2023-07-22T15:06:54;16.80;99.90
60717;DHT22;46566;52.700;6.192;2023-07-22T15:09:20;16.70;99.90
60717;DHT22;46566;52.700;6.192;2023-07-22T15:12:12;16.70;99.90
60717;DHT22;46566;52.700;6.192;2023-07-22T15:14:37;16.70;99.90
60717;DHT22;46566;52.700;6.192;2023-07-22T15:17:03;16.60;99.90
60717;DHT22;46566;52.700;6.192;2023-07-22T15:19:29;16.60;99.90
60717;DHT22;46566;52.700;6.192;2023-07-22T15:22:19;16.60;99.90
60717;DHT22;46566;52.700;6.192;2023-07-22T15:24:45;16.60;99.90
60717;DHT22;46566;52.700;6.192;2023-07-22T15:27:11;16.60;99.90
60717;DHT22;46566;52.700;6.192;2023-07-22T15:29:37;16.60;99.90
60717;DHT22;46566;52.700;6.192;2023-07-22T15:32:28;16.60;99.90
60717;DHT22;46566;52.700;6.192;2023-07-22T15:34:54;16.60;99.90
60717;DHT22;46566;52.700;6.192;2023-07-22T15:37:20;16.60;99.90
60717;DHT22;46566;52.700;6.192;2023-07-22T15:39:46;16.60;99.90
60717;DHT22;46566;52.700;6.192;2023-07-22T15:44:54;16.70;99.90
60717;DHT22;46566;52.700;6.192;2023-07-22T15:47:20;16.80;99.90
60717;DHT22;46566;52.700;6.192;2023-07-22T15:49:46;16.80;99.90
60717;DHT22;46566;52.700;6.192;2023-07-22T15:52:12;16.80;99.90
60717;DHT22;46566;52.700;6.192;2023-07-22T15:57:35;16.80;99.90
60717;DHT22;46566;52.700;6.192;2023-07-22T16:00:01;16.80;99.90
60717;DHT22;46566;52.700;6.192;2023-07-22T16:05:09;16.80;99.90
60717;DHT22;46566;52.700;6.192;2023-07-22T16:07:36;16.80;99.90
60717;DHT22;46566;52.700;6.192;2023-07-22T16:10:03;16.80;99.90
60717;DHT22;46566;52.700;6.192;2023-07-22T16:12:29;16.90;99.90
60717;DHT22;46566;52.700;6.192;2023-07-22T16:17:52;16.90;99.90
60717;DHT22;46566;52.700;6.192;2023-07-22T16:20:19;17.00;99.90
60717;DHT22;46566;52.700;6.192;2023-07-22T16:23:10;17.00;99.90
60717;DHT22;46566;52.700;6.192;2023-07-22T16:25:36;17.00;99.90
60717;DHT22;46566;52.700;6.192;2023-07-22T16:28:01;17.10;99.90
60717;DHT22;46566;52.700;6.192;2023-07-22T16:30:27;17.00;99.90
60717;DHT22;46566;52.700;6.192;2023-07-22T16:33:08;17.10;99.90
60717;DHT22;46566;52.700;6.192;2023-07-22T16:35:33;17.10;99.90
60717;DHT22;46566;52.700;6.192;2023-07-22T16:37:59;17.10;99.90
60717;DHT22;46566;52.700;6.192;2023-07-22T16:40:25;17.10;99.90
60717;DHT22;46566;52.700;6.192;2023-07-22T16:42:51;17.10;99.90
60717;DHT22;46566;52.700;6.192;2023-07-22T16:45:43;17.10;99.90
60717;DHT22;46566;52.700;6.192;2023-07-22T16:48:12;17.10;99.90
60717;DHT22;46566;52.700;6.192;2023-07-22T16:50:37;17.10;99.90
60717;DHT22;46566;52.700;6.192;2023-07-22T16:53:23;17.10;99.90
60717;DHT22;46566;52.700;6.192;2023-07-22T16:55:49;17.10;99.90